Hlavní strana
METAR-TAF:

METAR-TAF

Letiště :

Newark-Heath Airport

Newark, Ohio, Spojené státy americké

zeměpisná šířka: 40-01-22N, zeměpisná délka: 082-27-45W, výška: 269 m

Aktuální stav počasí

Zpráva byla vytvořena před 19 minutami, v 04:54 UTC
Severozápadní vítr 7 kt
Teplota 22°C
Vlhkost vzduchu 88%
Tlak 1012 hPa
Viditelnost: 16.1 km
Skoro jasno ve výšce 1400 ft
Zataženo ve výšce 7500 ft

METAR: KVTA 220454Z AUTO 32007KT 10SM FEW014 OVC075 22/20 A2988 RMK AO2 SLP111 T02220200 402780211

Čas: 01:13 (05:13 UTC)


TAF: chybějící

Stav a předpovědi počasí z více než 4 000 letišť (zprávy METAR a TAF).

Červené a žluté tečky na mapě představují dostupné meteorologické stanice.

Když kurzor umístíte na tečku, zobrazí se název stanice.

Pak kliknutím zobrazíte stav a předpověď počasí.

Chcete-li změnit mapu, kliknutím na zelené tlačítko se znaménkem +mapu přiblížíte, kliknutím na zelené tlačítko se znaménkem – mapu oddálíte a kliknutím na zelené šipky přejdete na sousední mapy.


METAR-TAF: